Time;durP1;ratioP1;P1;durP2;ratioP2;P2;SDS_P1;SDS_P2;PMS_P1;PMS_P2;Temp;Humidity;BMP_temperature;BMP_pressure;BME280_temperature;BME280_humidity;BME280_pressure;Samples;Min_cycle;Max_cycle;Signal;HPM_P1;HPM_P2
2023/12/27 00:01:22;;;;;;;11.80;2.38;;;3.20;99.90;;;;;;4952705;29;20040;-84
2023/12/27 00:03:48;;;;;;;13.27;2.38;;;4.40;99.90;;;;;;4956585;29;20370;-84
2023/12/27 00:06:15;;;;;;;13.35;2.60;;;3.20;99.90;;;;;;4941699;29;20752;-84
2023/12/27 00:08:42;;;;;;;14.27;2.22;;;3.50;99.90;;;;;;4933647;29;20127;-84
2023/12/27 00:11:08;;;;;;;7.97;2.38;;;3.10;99.90;;;;;;4950607;29;20036;-84
2023/12/27 00:13:35;;;;;;;12.85;2.33;;;3.10;99.90;;;;;;4957690;29;20043;-84
2023/12/27 00:16:01;;;;;;;8.90;2.10;;;3.10;99.90;;;;;;4963157;29;20048;-84
2023/12/27 00:18:28;;;;;;;8.23;2.40;;;3.10;99.90;;;;;;4943396;29;20036;-84
2023/12/27 00:20:55;;;;;;;11.20;2.28;;;3.10;99.90;;;;;;4970877;29;20044;-85
2023/12/27 00:23:21;;;;;;;11.07;2.13;;;3.00;99.90;;;;;;4956456;29;20044;-84
2023/12/27 00:25:48;;;;;;;12.55;2.53;;;3.00;99.90;;;;;;4950523;29;20054;-84
2023/12/27 00:28:15;;;;;;;12.90;2.75;;;3.50;99.90;;;;;;4945605;29;20048;-85
2023/12/27 00:30:41;;;;;;;15.75;3.67;;;3.00;99.90;;;;;;4956400;29;20091;-84
2023/12/27 00:33:08;;;;;;;14.13;2.88;;;3.00;99.90;;;;;;4950532;29;20040;-84
2023/12/27 00:35:34;;;;;;;8.50;2.25;;;3.70;99.90;;;;;;4956223;29;20050;-84
2023/12/27 00:38:01;;;;;;;11.60;2.67;;;2.90;99.90;;;;;;4969528;29;20521;-84
2023/12/27 00:40:28;;;;;;;10.35;2.50;;;2.90;99.90;;;;;;4956355;29;20075;-84
2023/12/27 00:42:54;;;;;;;8.68;2.65;;;3.30;99.90;;;;;;4955974;29;20099;-84
2023/12/27 00:45:21;;;;;;;10.80;3.05;;;3.50;99.90;;;;;;4953804;29;20041;-85
2023/12/27 00:47:48;;;;;;;10.60;2.78;;;3.80;99.90;;;;;;4956275;29;20048;-84
2023/12/27 00:50:14;;;;;;;9.77;3.10;;;2.70;99.90;;;;;;4955813;29;20040;-84
2023/12/27 00:52:41;;;;;;;14.23;2.63;;;2.90;99.90;;;;;;4954317;29;20036;-85
2023/12/27 00:55:08;;;;;;;11.07;2.65;;;2.70;99.90;;;;;;4949025;29;20051;-84
2023/12/27 00:57:34;;;;;;;8.27;2.10;;;2.70;99.90;;;;;;4966000;29;20043;-84
2023/12/27 01:00:01;;;;;;;10.40;2.80;;;2.70;99.90;;;;;;4956086;29;20075;-84
2023/12/27 01:02:27;;;;;;;9.05;2.60;;;3.00;99.90;;;;;;4950833;29;20063;-84
2023/12/27 01:04:55;;;;;;;13.68;2.25;;;3.50;99.90;;;;;;4954976;29;20135;-84
2023/12/27 01:07:22;;;;;;;10.50;2.47;;;2.70;99.90;;;;;;4952017;29;20039;-84
2023/12/27 01:09:49;;;;;;;9.15;2.63;;;2.60;99.90;;;;;;4955511;29;20059;-84
2023/12/27 01:12:16;;;;;;;7.35;1.95;;;2.50;99.90;;;;;;4959793;29;20044;-84
2023/12/27 01:14:42;;;;;;;15.07;2.63;;;3.10;99.90;;;;;;4967759;29;20474;-84
2023/12/27 01:17:09;;;;;;;9.07;2.20;;;2.70;99.90;;;;;;4955376;29;20104;-85
2023/12/27 01:19:36;;;;;;;6.70;2.15;;;2.50;99.90;;;;;;4955611;29;20047;-84
2023/12/27 01:22:02;;;;;;;14.10;3.00;;;2.50;99.90;;;;;;4953854;29;20043;-85
2023/12/27 01:24:29;;;;;;;12.65;2.00;;;2.40;99.90;;;;;;4944405;29;20468;-84
2023/12/27 01:26:55;;;;;;;14.48;2.50;;;2.90;99.90;;;;;;4954657;29;20068;-84
2023/12/27 01:29:22;;;;;;;7.30;2.00;;;2.40;99.90;;;;;;4946924;29;20051;-84
2023/12/27 01:31:49;;;;;;;7.78;2.17;;;3.00;99.90;;;;;;4952392;29;20067;-85
2023/12/27 01:34:16;;;;;;;9.25;1.80;;;2.90;99.90;;;;;;4955076;29;20126;-84
2023/12/27 01:36:42;;;;;;;5.50;1.50;;;2.70;99.90;;;;;;4952483;29;20076;-84
2023/12/27 01:39:09;;;;;;;10.18;2.00;;;2.50;99.90;;;;;;4962509;29;20063;-85
2023/12/27 01:41:35;;;;;;;20.17;1.80;;;3.40;99.90;;;;;;4954901;29;20102;-85
2023/12/27 01:44:02;;;;;;;5.40;1.48;;;3.40;99.90;;;;;;4954936;29;20039;-84
2023/12/27 01:46:30;;;;;;;8.88;1.77;;;2.20;99.90;;;;;;4954826;29;20054;-84
2023/12/27 01:48:58;;;;;;;6.80;1.70;;;2.30;99.90;;;;;;4955189;29;20036;-84
2023/12/27 01:51:26;;;;;;;8.80;2.00;;;2.10;99.90;;;;;;4943954;29;20102;-85
2023/12/27 01:53:53;;;;;;;8.20;1.75;;;2.10;99.90;;;;;;4954779;29;20035;-85
2023/12/27 01:56:20;;;;;;;8.07;1.77;;;2.10;99.90;;;;;;4954558;29;20138;-85
2023/12/27 01:58:46;;;;;;;9.05;2.03;;;3.00;99.90;;;;;;4954749;29;20059;-85
2023/12/27 02:01:13;;;;;;;5.40;1.60;;;2.00;99.90;;;;;;4957788;29;20064;-85
2023/12/27 02:03:41;;;;;;;4.30;1.38;;;2.20;99.90;;;;;;4954837;29;20077;-84
2023/12/27 02:06:07;;;;;;;7.68;2.10;;;2.00;99.90;;;;;;4951788;29;20063;-84
2023/12/27 02:08:34;;;;;;;5.20;1.73;;;2.00;99.90;;;;;;4944583;29;20048;-84
2023/12/27 02:11:01;;;;;;;7.32;1.65;;;2.00;99.90;;;;;;4965971;29;20048;-84
2023/12/27 02:13:27;;;;;;;7.03;1.90;;;2.00;99.90;;;;;;4954421;29;20103;-85
2023/12/27 02:15:55;;;;;;;8.10;1.77;;;1.90;99.90;;;;;;4951085;29;20082;-84
2023/12/27 02:18:22;;;;;;;5.60;1.73;;;1.90;99.90;;;;;;4961628;29;20044;-84
2023/12/27 02:20:49;;;;;;;15.55;2.00;;;2.10;99.90;;;;;;4954093;29;20505;-83
2023/12/27 02:23:18;;;;;;;6.95;1.52;;;1.90;99.90;;;;;;4943097;29;20058;-85
2023/12/27 02:25:45;;;;;;;7.50;1.98;;;1.90;99.90;;;;;;4937099;29;20052;-85
2023/12/27 02:28:12;;;;;;;8.82;1.70;;;2.50;99.90;;;;;;4968835;29;20043;-84
2023/12/27 02:30:39;;;;;;;9.43;1.80;;;1.80;99.90;;;;;;4953909;29;20051;-85
2023/12/27 02:33:05;;;;;;;6.00;2.15;;;1.80;99.90;;;;;;4943251;29;20044;-85
2023/12/27 02:35:32;;;;;;;5.25;2.00;;;1.70;99.90;;;;;;4953967;29;20130;-85
2023/12/27 02:37:59;;;;;;;10.98;1.88;;;1.70;99.90;;;;;;4956783;29;20048;-84
2023/12/27 02:40:25;;;;;;;6.28;1.67;;;1.70;99.90;;;;;;4947837;29;20497;-85
2023/12/27 02:42:52;;;;;;;11.93;1.85;;;1.70;99.90;;;;;;4953401;29;20043;-85
2023/12/27 02:45:19;;;;;;;8.48;2.05;;;2.70;99.90;;;;;;4938916;29;20127;-84
2023/12/27 02:47:45;;;;;;;7.50;1.58;;;1.60;99.90;;;;;;4948624;29;20103;-84
2023/12/27 02:50:12;;;;;;;7.38;1.83;;;1.70;99.90;;;;;;4937829;29;20048;-85
2023/12/27 02:52:39;;;;;;;9.60;1.63;;;1.60;99.90;;;;;;4964727;29;20043;-85
2023/12/27 02:55:06;;;;;;;9.60;1.83;;;2.70;99.90;;;;;;4957059;29;20054;-84
2023/12/27 02:57:32;;;;;;;8.50;1.60;;;1.60;99.90;;;;;;4968929;29;20053;-84
2023/12/27 02:59:59;;;;;;;8.45;1.50;;;1.60;99.90;;;;;;4957514;29;20036;-85
2023/12/27 03:02:25;;;;;;;4.57;1.50;;;1.60;99.90;;;;;;4969435;29;20039;-85
2023/12/27 03:04:52;;;;;;;9.40;1.52;;;1.60;99.90;;;;;;4945991;29;20127;-84
2023/12/27 03:07:19;;;;;;;8.07;1.90;;;1.50;99.90;;;;;;4948576;29;20070;-85
2023/12/27 03:09:45;;;;;;;4.43;1.67;;;1.60;99.90;;;;;;4950031;29;20055;-85
2023/12/27 03:12:12;;;;;;;9.32;1.65;;;1.50;99.90;;;;;;4940789;29;20040;-85
2023/12/27 03:14:39;;;;;;;9.27;1.80;;;1.50;99.90;;;;;;4946692;29;20060;-84
2023/12/27 03:17:05;;;;;;;10.80;2.08;;;1.60;99.90;;;;;;4950326;29;20048;-85
2023/12/27 03:19:32;;;;;;;8.45;1.80;;;2.50;99.90;;;;;;4953229;29;20082;-85
2023/12/27 03:21:58;;;;;;;9.43;1.88;;;2.30;99.90;;;;;;4953008;29;20505;-85
2023/12/27 03:24:25;;;;;;;7.88;1.52;;;1.50;99.90;;;;;;4953071;29;20122;-84
2023/12/27 03:26:52;;;;;;;11.80;1.70;;;1.60;99.90;;;;;;4951394;29;20039;-84
2023/12/27 03:29:19;;;;;;;9.60;1.98;;;1.60;99.90;;;;;;4944947;29;20207;-84
2023/12/27 03:31:45;;;;;;;8.48;1.83;;;1.60;99.90;;;;;;4964380;29;20047;-84
2023/12/27 03:34:12;;;;;;;7.90;1.58;;;1.50;99.90;;;;;;4947084;29;20107;-84
2023/12/27 03:36:38;;;;;;;5.50;1.73;;;1.60;99.90;;;;;;4950461;29;20046;-84
2023/12/27 03:39:05;;;;;;;8.75;2.28;;;1.60;99.90;;;;;;4947624;29;20086;-84
2023/12/27 03:41:32;;;;;;;9.60;1.73;;;1.60;99.90;;;;;;4952859;29;20083;-84
2023/12/27 03:43:59;;;;;;;9.45;1.85;;;1.70;99.90;;;;;;4943619;29;20127;-85
2023/12/27 03:46:26;;;;;;;5.22;1.52;;;2.70;99.90;;;;;;4949848;29;20444;-84
2023/12/27 03:48:52;;;;;;;9.93;2.00;;;1.80;99.90;;;;;;4947697;29;20035;-84
2023/12/27 03:51:22;;;;;;;9.82;1.77;;;1.70;99.90;;;;;;4940151;29;20032;-85
2023/12/27 03:53:48;;;;;;;8.38;2.13;;;1.80;99.90;;;;;;4949230;29;20040;-84
2023/12/27 03:56:15;;;;;;;7.93;2.33;;;2.80;99.90;;;;;;4946142;29;20039;-84
2023/12/27 03:58:43;;;;;;;10.02;2.20;;;1.80;99.90;;;;;;4948183;29;20044;-84
2023/12/27 04:01:10;;;;;;;7.00;1.70;;;2.80;99.90;;;;;;4947169;29;20036;-84
2023/12/27 04:03:36;;;;;;;7.50;1.42;;;1.70;99.90;;;;;;4945008;29;20048;-84
2023/12/27 04:06:03;;;;;;;10.00;1.77;;;1.70;99.90;;;;;;4945676;29;20039;-84
2023/12/27 04:08:30;;;;;;;8.05;1.90;;;1.70;99.90;;;;;;4942138;29;20135;-84
2023/12/27 04:10:56;;;;;;;7.25;2.20;;;1.70;99.90;;;;;;4950149;29;20036;-84
2023/12/27 04:13:23;;;;;;;8.68;2.10;;;1.60;99.90;;;;;;4964541;29;20031;-84
2023/12/27 04:15:50;;;;;;;10.95;2.33;;;1.70;99.90;;;;;;4939785;29;20600;-84
2023/12/27 04:18:17;;;;;;;5.70;1.95;;;1.70;99.90;;;;;;4952593;29;20067;-84
2023/12/27 04:20:43;;;;;;;7.93;2.60;;;1.90;99.90;;;;;;4968431;29;20454;-84
2023/12/27 04:23:10;;;;;;;14.15;2.55;;;2.30;99.90;;;;;;4952735;29;20176;-84
2023/12/27 04:25:36;;;;;;;5.60;1.85;;;1.70;99.90;;;;;;4948412;29;20456;-84
2023/12/27 04:28:03;;;;;;;11.45;2.47;;;1.70;99.90;;;;;;4941619;29;20040;-84
2023/12/27 04:30:30;;;;;;;12.40;2.40;;;1.70;99.90;;;;;;4961783;29;20482;-84
2023/12/27 04:32:56;;;;;;;12.48;2.45;;;1.70;99.90;;;;;;4945337;29;20059;-84
2023/12/27 04:35:23;;;;;;;6.72;1.92;;;2.10;99.90;;;;;;4941513;29;20044;-84
2023/12/27 04:37:50;;;;;;;8.85;2.38;;;1.80;99.90;;;;;;4958786;29;20155;-84
2023/12/27 04:40:16;;;;;;;8.13;2.17;;;1.70;99.90;;;;;;4952331;29;20044;-84
2023/12/27 04:42:43;;;;;;;9.60;2.20;;;1.80;99.90;;;;;;4952320;29;20075;-84
2023/12/27 04:45:10;;;;;;;8.52;2.45;;;1.80;99.90;;;;;;4952537;29;20048;-84
2023/12/27 04:47:36;;;;;;;7.60;2.03;;;1.80;99.90;;;;;;4952287;29;20044;-84
2023/12/27 04:50:04;;;;;;;14.45;3.28;;;2.40;99.90;;;;;;4950654;29;20087;-84
2023/12/27 04:52:30;;;;;;;9.88;2.47;;;1.80;99.90;;;;;;4952287;29;20433;-84
2023/12/27 04:54:57;;;;;;;11.20;2.70;;;2.40;99.90;;;;;;4949369;29;20040;-84
2023/12/27 04:57:24;;;;;;;9.35;2.38;;;1.80;99.90;;;;;;4940186;29;20489;-84
2023/12/27 04:59:50;;;;;;;12.30;2.53;;;1.80;99.90;;;;;;4936107;29;20040;-84
2023/12/27 05:02:17;;;;;;;11.70;3.42;;;2.50;99.90;;;;;;4934954;29;20515;-84
2023/12/27 05:04:44;;;;;;;13.20;3.28;;;2.20;99.90;;;;;;4971597;29;20054;-84
2023/12/27 05:07:10;;;;;;;16.83;3.22;;;2.50;99.90;;;;;;4944792;29;20123;-84
2023/12/27 05:09:37;;;;;;;11.65;3.45;;;2.60;99.90;;;;;;4938147;29;20056;-84
2023/12/27 05:12:04;;;;;;;7.50;2.60;;;2.80;99.90;;;;;;4936920;29;20040;-84
2023/12/27 05:14:31;;;;;;;9.07;2.88;;;1.80;99.90;;;;;;4942170;29;20047;-84
2023/12/27 05:16:57;;;;;;;9.98;2.88;;;1.80;99.90;;;;;;4955579;29;20054;-84
2023/12/27 05:19:24;;;;;;;12.75;3.10;;;2.20;99.90;;;;;;4949713;29;20044;-84
2023/12/27 05:21:51;;;;;;;10.52;2.70;;;1.80;99.90;;;;;;4953343;29;20078;-84
2023/12/27 05:24:18;;;;;;;11.05;3.45;;;2.30;99.90;;;;;;4955442;29;20535;-84
2023/12/27 05:26:44;;;;;;;8.00;3.30;;;1.90;99.90;;;;;;4954764;29;20079;-84
2023/12/27 05:29:11;;;;;;;8.25;2.60;;;1.80;99.90;;;;;;4945250;29;20488;-84
2023/12/27 05:31:38;;;;;;;10.18;3.00;;;1.90;99.90;;;;;;4954941;29;20126;-84
2023/12/27 05:34:04;;;;;;;14.35;3.10;;;1.90;99.90;;;;;;4954873;29;20481;-84
2023/12/27 05:36:31;;;;;;;9.93;3.20;;;1.90;99.90;;;;;;4942667;29;20071;-84
2023/12/27 05:38:57;;;;;;;9.93;3.20;;;1.90;99.90;;;;;;4955098;29;20043;-84
2023/12/27 05:41:25;;;;;;;12.15;3.33;;;2.00;99.90;;;;;;4954981;29;20040;-84
2023/12/27 05:43:53;;;;;;;16.23;3.67;;;2.00;99.90;;;;;;4954723;29;20039;-84
2023/12/27 05:46:20;;;;;;;16.30;4.45;;;2.00;99.90;;;;;;4942276;29;20044;-84
2023/12/27 05:48:47;;;;;;;11.10;3.10;;;2.00;99.90;;;;;;4970759;29;20032;-84
2023/12/27 05:51:13;;;;;;;12.43;3.80;;;2.00;99.90;;;;;;4954875;29;20043;-83
2023/12/27 05:53:41;;;;;;;10.35;3.15;;;2.10;99.90;;;;;;4955053;29;20047;-84
2023/12/27 05:56:08;;;;;;;10.35;3.53;;;2.30;99.90;;;;;;4954340;29;20504;-84
2023/12/27 05:58:35;;;;;;;8.98;3.67;;;2.10;99.90;;;;;;4955005;29;20047;-84
2023/12/27 06:01:02;;;;;;;10.88;3.50;;;2.10;99.90;;;;;;4948775;29;20087;-84
2023/12/27 06:03:28;;;;;;;10.60;4.18;;;2.10;99.90;;;;;;4955320;29;20036;-84
2023/12/27 06:05:55;;;;;;;7.63;3.50;;;2.10;99.90;;;;;;4953170;29;20070;-84
2023/12/27 06:08:22;;;;;;;9.95;3.90;;;2.10;99.90;;;;;;4940024;29;20040;-84
2023/12/27 06:10:49;;;;;;;13.18;3.80;;;2.10;99.90;;;;;;4952906;29;20510;-84
2023/12/27 06:13:15;;;;;;;14.60;3.78;;;2.20;99.90;;;;;;4944993;29;20036;-84
2023/12/27 06:15:42;;;;;;;12.75;4.00;;;3.00;99.90;;;;;;4947794;29;20490;-84
2023/12/27 06:18:09;;;;;;;9.27;3.47;;;2.20;99.90;;;;;;4970238;29;20048;-85
2023/12/27 06:20:36;;;;;;;10.45;4.03;;;2.30;99.90;;;;;;4954450;29;20070;-84
2023/12/27 06:23:03;;;;;;;8.57;3.72;;;2.20;99.90;;;;;;4954543;29;20040;-84
2023/12/27 06:25:30;;;;;;;12.10;3.58;;;2.20;99.90;;;;;;4947168;29;20039;-84
2023/12/27 06:27:57;;;;;;;13.98;4.47;;;2.30;99.90;;;;;;4954072;29;20038;-84
2023/12/27 06:30:24;;;;;;;13.77;3.97;;;2.30;99.90;;;;;;4943323;29;20040;-84
2023/12/27 06:32:51;;;;;;;16.38;3.75;;;2.30;99.90;;;;;;4960181;29;20048;-84
2023/12/27 06:35:17;;;;;;;13.52;3.60;;;2.80;99.90;;;;;;4942529;29;20597;-84
2023/12/27 06:37:44;;;;;;;15.85;3.55;;;2.70;99.90;;;;;;4943611;29;20077;-84
2023/12/27 06:40:11;;;;;;;12.23;3.67;;;3.20;99.90;;;;;;4953798;29;20095;-84
2023/12/27 06:42:37;;;;;;;9.80;3.55;;;2.30;99.90;;;;;;4953323;29;20768;-84
2023/12/27 06:45:05;;;;;;;18.60;3.92;;;2.40;99.90;;;;;;4950474;29;20051;-84
2023/12/27 06:47:31;;;;;;;10.25;3.72;;;2.40;99.90;;;;;;4952367;29;20070;-84
2023/12/27 06:49:58;;;;;;;14.55;4.10;;;2.40;99.90;;;;;;4935420;29;20518;-84
2023/12/27 06:52:24;;;;;;;13.70;3.95;;;2.70;99.90;;;;;;4941739;29;20130;-84
2023/12/27 06:54:51;;;;;;;8.55;3.95;;;2.50;99.90;;;;;;4950630;29;20040;-85
2023/12/27 06:57:18;;;;;;;12.15;3.90;;;2.40;99.90;;;;;;4953369;29;20053;-84
2023/12/27 06:59:44;;;;;;;11.75;3.72;;;2.40;99.90;;;;;;4939820;29;20048;-84
2023/12/27 07:02:11;;;;;;;12.05;3.67;;;2.40;99.90;;;;;;4941857;29;20051;-84
2023/12/27 07:04:38;;;;;;;10.23;4.20;;;2.40;99.90;;;;;;4953090;29;20044;-84
2023/12/27 07:07:04;;;;;;;10.75;4.00;;;2.40;99.90;;;;;;4966219;29;20044;-84
2023/12/27 07:09:31;;;;;;;10.38;3.97;;;2.40;99.90;;;;;;4941929;29;20079;-84
2023/12/27 07:11:58;;;;;;;11.55;3.80;;;2.40;99.90;;;;;;4961057;29;20505;-84
2023/12/27 07:14:24;;;;;;;17.48;3.78;;;2.50;99.90;;;;;;4948975;29;20146;-84
2023/12/27 07:16:51;;;;;;;15.50;3.78;;;2.50;99.90;;;;;;4953117;29;20054;-84
2023/12/27 07:19:18;;;;;;;12.38;3.88;;;3.70;99.90;;;;;;4950904;29;20404;-84
2023/12/27 07:21:44;;;;;;;17.35;4.05;;;2.50;99.90;;;;;;4950088;29;20044;-84
2023/12/27 07:24:11;;;;;;;14.80;3.67;;;2.50;99.90;;;;;;4936838;29;20420;-84
2023/12/27 07:26:37;;;;;;;15.93;4.15;;;2.90;99.90;;;;;;4956917;29;20130;-84
2023/12/27 07:29:04;;;;;;;11.60;3.78;;;3.60;99.90;;;;;;4952039;29;20501;-84
2023/12/27 07:31:31;;;;;;;9.57;3.85;;;2.60;99.90;;;;;;4969215;29;20040;-84
2023/12/27 07:33:58;;;;;;;15.90;4.18;;;3.40;99.90;;;;;;4945660;29;20032;-84
2023/12/27 07:36:24;;;;;;;10.95;3.78;;;3.20;99.90;;;;;;4947630;29;20182;-84
2023/12/27 07:38:51;;;;;;;12.85;4.07;;;2.60;99.90;;;;;;4957674;29;20055;-83
2023/12/27 07:41:18;;;;;;;9.93;4.03;;;2.50;99.90;;;;;;4950697;29;20409;-83
2023/12/27 07:43:44;;;;;;;15.20;4.18;;;2.70;99.90;;;;;;4957578;29;20046;-83
2023/12/27 07:46:11;;;;;;;9.15;3.60;;;3.20;99.90;;;;;;4952262;29;20497;-83
2023/12/27 07:48:37;;;;;;;17.15;5.32;;;3.50;99.90;;;;;;4945457;29;20043;-83
2023/12/27 07:51:04;;;;;;;17.80;5.80;;;2.70;99.90;;;;;;4951705;29;20154;-83
2023/12/27 07:53:33;;;;;;;11.00;4.72;;;2.80;99.90;;;;;;4963393;29;20119;-83
2023/12/27 07:55:59;;;;;;;13.95;4.65;;;2.90;99.90;;;;;;4952726;29;20048;-83
2023/12/27 07:58:26;;;;;;;13.45;3.97;;;2.80;99.90;;;;;;4950383;29;20051;-83
2023/12/27 08:00:53;;;;;;;8.27;3.78;;;2.80;99.90;;;;;;4953886;29;20147;-83
2023/12/27 08:03:19;;;;;;;10.13;4.10;;;2.80;99.90;;;;;;4948951;29;20050;-84
2023/12/27 08:05:46;;;;;;;15.15;5.18;;;2.90;99.90;;;;;;4960387;29;20056;-83
2023/12/27 08:08:13;;;;;;;13.30;3.88;;;2.90;99.90;;;;;;4947323;29;20083;-83
2023/12/27 08:10:40;;;;;;;13.45;3.88;;;4.10;99.90;;;;;;4937147;29;20119;-83
2023/12/27 08:13:07;;;;;;;11.00;4.22;;;3.00;99.90;;;;;;4937409;29;20466;-83
2023/12/27 08:15:35;;;;;;;16.10;4.38;;;2.90;99.90;;;;;;4950939;29;20050;-83
2023/12/27 08:18:03;;;;;;;12.10;4.30;;;3.80;99.90;;;;;;4924967;29;20050;-83
2023/12/27 08:20:30;;;;;;;16.77;4.20;;;3.00;99.90;;;;;;4939252;29;20417;-82
2023/12/27 08:22:58;;;;;;;15.25;4.97;;;3.40;99.90;;;;;;4946750;29;20047;-83
2023/12/27 08:25:25;;;;;;;17.55;5.30;;;3.10;99.90;;;;;;4949310;29;20044;-83
2023/12/27 08:27:51;;;;;;;10.25;4.50;;;3.10;99.90;;;;;;4928340;29;20489;-84
2023/12/27 08:30:18;;;;;;;11.57;3.60;;;3.30;99.90;;;;;;4940124;29;20044;-83
2023/12/27 08:32:45;;;;;;;11.05;3.63;;;3.50;99.90;;;;;;4944768;29;20477;-83
2023/12/27 08:35:12;;;;;;;10.65;3.42;;;3.20;99.90;;;;;;4932014;29;20074;-83
2023/12/27 08:37:38;;;;;;;14.93;3.67;;;3.20;99.90;;;;;;4935370;29;20032;-83
2023/12/27 08:40:06;;;;;;;8.23;3.28;;;3.20;99.90;;;;;;4925182;29;20115;-83
2023/12/27 08:42:33;;;;;;;10.65;3.50;;;3.20;99.90;;;;;;4939155;29;20035;-83
2023/12/27 08:45:00;;;;;;;10.07;2.90;;;3.20;99.90;;;;;;4946345;29;20187;-83
2023/12/27 08:47:27;;;;;;;10.60;3.30;;;3.30;99.90;;;;;;4936866;29;20048;-83
2023/12/27 08:49:55;;;;;;;7.43;2.72;;;3.30;99.90;;;;;;4928273;29;20095;-83
2023/12/27 08:52:21;;;;;;;10.23;3.00;;;3.30;99.90;;;;;;4936738;29;20498;-83
2023/12/27 08:54:48;;;;;;;14.27;3.13;;;3.40;99.90;;;;;;4934396;29;20046;-83
2023/12/27 08:57:15;;;;;;;10.48;2.90;;;3.40;99.90;;;;;;4931101;29;20043;-83
2023/12/27 08:59:41;;;;;;;18.52;4.45;;;4.00;99.90;;;;;;4933286;29;20052;-83
2023/12/27 09:02:08;;;;;;;9.90;3.13;;;3.50;99.90;;;;;;4948090;29;20065;-83
2023/12/27 09:04:35;;;;;;;8.57;3.00;;;3.50;99.90;;;;;;4934985;29;20047;-83
2023/12/27 09:07:01;;;;;;;23.75;3.03;;;3.60;99.90;;;;;;4942504;29;20493;-83
2023/12/27 09:09:29;;;;;;;15.90;2.83;;;3.60;99.90;;;;;;4947809;29;20052;-83
2023/12/27 09:11:55;;;;;;;7.03;2.20;;;4.10;99.90;;;;;;4950679;29;20060;-83
2023/12/27 09:14:22;;;;;;;15.93;2.65;;;4.70;99.90;;;;;;4969002;29;20070;-84
2023/12/27 09:16:48;;;;;;;9.90;2.50;;;3.80;99.90;;;;;;4963997;29;20048;-84
2023/12/27 09:19:15;;;;;;;13.40;3.33;;;4.70;99.90;;;;;;4949625;29;20072;-84
2023/12/27 09:21:46;;;;;;;10.60;3.05;;;4.40;99.90;;;;;;4946102;29;20044;-84
2023/12/27 09:24:13;;;;;;;7.65;2.60;;;3.90;99.90;;;;;;4943499;29;20036;-83
2023/12/27 09:26:40;;;;;;;14.63;3.05;;;3.90;99.90;;;;;;4950081;29;20043;-84
2023/12/27 09:29:09;;;;;;;10.45;2.40;;;3.90;99.90;;;;;;4952282;29;20075;-83
2023/12/27 09:31:36;;;;;;;9.80;3.03;;;4.90;99.90;;;;;;4942785;29;20042;-84
2023/12/27 09:34:02;;;;;;;13.98;2.90;;;4.00;99.90;;;;;;4963548;29;20148;-84
2023/12/27 09:36:29;;;;;;;6.07;2.40;;;4.00;99.90;;;;;;4954742;29;20067;-84
2023/12/27 09:38:56;;;;;;;10.05;2.45;;;4.00;99.90;;;;;;4953835;29;20078;-84
2023/12/27 09:41:23;;;;;;;11.90;2.42;;;4.60;99.90;;;;;;4946266;29;20096;-84
2023/12/27 09:43:52;;;;;;;11.65;2.40;;;4.10;99.90;;;;;;4947620;29;20040;-85
2023/12/27 09:46:19;;;;;;;8.40;2.03;;;4.70;99.90;;;;;;4970309;29;20036;-85
2023/12/27 09:48:47;;;;;;;11.68;2.40;;;4.10;99.90;;;;;;4953791;29;20067;-85
2023/12/27 09:51:22;;;;;;;7.93;1.92;;;4.20;99.90;;;;;;4942759;29;20032;-85
2023/12/27 09:53:52;;;;;;;7.82;2.03;;;4.10;99.90;;;;;;4951370;29;20071;-84
2023/12/27 09:56:21;;;;;;;10.70;2.60;;;4.10;99.90;;;;;;4935243;29;20036;-85
2023/12/27 09:58:58;;;;;;;14.25;2.55;;;4.20;99.90;;;;;;4959774;29;20051;-85
2023/12/27 10:01:25;;;;;;;8.85;2.20;;;4.20;99.90;;;;;;4947989;29;20040;-83
2023/12/27 10:04:03;;;;;;;12.15;2.20;;;4.20;99.90;;;;;;4953265;29;20054;-84
2023/12/27 10:06:43;;;;;;;10.55;2.33;;;4.30;99.90;;;;;;4960071;29;20044;-85
2023/12/27 10:09:11;;;;;;;11.00;2.50;;;4.30;99.90;;;;;;4951943;29;20122;-85
2023/12/27 10:11:41;;;;;;;11.13;2.53;;;4.30;99.90;;;;;;4938850;29;20036;-84
2023/12/27 10:14:13;;;;;;;9.68;2.03;;;4.30;99.90;;;;;;4966348;29;20043;-84
2023/12/27 10:16:39;;;;;;;11.00;2.63;;;4.30;99.90;;;;;;4944336;29;20044;-84
2023/12/27 10:19:07;;;;;;;8.60;2.45;;;4.30;99.90;;;;;;4952439;29;20432;-85
2023/12/27 10:21:44;;;;;;;11.02;2.15;;;5.40;99.90;;;;;;4948612;29;20044;-84
2023/12/27 10:24:11;;;;;;;9.18;2.58;;;4.40;99.90;;;;;;4953525;29;20139;-84
2023/12/27 10:26:38;;;;;;;19.48;3.65;;;4.90;99.90;;;;;;4952977;29;20134;-84
2023/12/27 10:29:07;;;;;;;8.57;2.60;;;4.50;99.90;;;;;;4953554;29;20036;-84
2023/12/27 10:31:34;;;;;;;9.13;2.58;;;4.40;99.90;;;;;;4947734;29;20556;-85
2023/12/27 10:34:03;;;;;;;11.07;2.83;;;4.50;99.90;;;;;;4957708;29;20040;-84
2023/12/27 10:36:30;;;;;;;13.45;3.35;;;4.50;99.90;;;;;;4953555;29;20483;-83
2023/12/27 10:38:59;;;;;;;10.85;2.85;;;4.60;99.90;;;;;;4953137;29;20648;-83
2023/12/27 10:41:25;;;;;;;12.48;3.22;;;4.60;99.90;;;;;;4953957;29;20035;-84
2023/12/27 10:43:53;;;;;;;11.13;3.03;;;4.60;99.90;;;;;;4950508;29;20583;-84
2023/12/27 10:46:20;;;;;;;8.52;2.50;;;4.80;99.90;;;;;;4967866;29;20044;-84
2023/12/27 10:48:51;;;;;;;10.60;3.85;;;4.90;99.90;;;;;;4942070;29;20090;-84
2023/12/27 10:51:19;;;;;;;14.82;3.55;;;4.70;99.90;;;;;;4948269;29;20058;-84
2023/12/27 10:53:52;;;;;;;11.02;3.53;;;4.80;99.90;;;;;;4950331;29;20038;-83
2023/12/27 10:56:21;;;;;;;16.27;3.70;;;5.70;99.90;;;;;;4949461;29;20036;-83
2023/12/27 10:58:51;;;;;;;14.68;4.10;;;4.80;99.90;;;;;;4940908;29;20048;-83
2023/12/27 11:01:21;;;;;;;10.90;3.78;;;5.10;99.90;;;;;;4951047;29;20048;-83
2023/12/27 11:03:50;;;;;;;11.82;3.72;;;5.90;99.90;;;;;;4941427;29;20082;-83
2023/12/27 11:06:17;;;;;;;12.98;3.67;;;4.90;99.90;;;;;;4954964;29;20048;-84
2023/12/27 11:08:48;;;;;;;12.63;3.53;;;5.80;99.90;;;;;;4952764;29;20118;-83
2023/12/27 11:11:17;;;;;;;13.55;3.53;;;5.30;99.90;;;;;;4947637;29;20108;-84
2023/12/27 11:13:45;;;;;;;8.88;3.30;;;5.00;99.90;;;;;;4950692;29;20035;-84
2023/12/27 11:16:13;;;;;;;14.30;3.70;;;5.50;99.90;;;;;;4968709;29;20047;-84
2023/12/27 11:18:40;;;;;;;12.55;3.90;;;6.00;99.90;;;;;;4940695;29;20071;-83
2023/12/27 11:21:07;;;;;;;13.02;3.80;;;6.20;99.90;;;;;;4952236;29;20043;-83
2023/12/27 11:23:33;;;;;;;10.95;4.00;;;5.20;99.90;;;;;;4950099;29;20062;-84
2023/12/27 11:26:00;;;;;;;10.90;3.90;;;5.20;99.90;;;;;;4953250;29;20040;-83
2023/12/27 11:28:27;;;;;;;11.73;4.20;;;5.20;99.90;;;;;;4962935;29;20040;-83
2023/12/27 11:30:55;;;;;;;15.70;4.47;;;5.90;99.90;;;;;;4965942;29;20039;-84
2023/12/27 11:33:22;;;;;;;13.30;4.53;;;5.40;99.90;;;;;;4941936;29;20039;-83
2023/12/27 11:35:51;;;;;;;13.93;5.10;;;5.30;99.90;;;;;;4936855;29;20086;-83
2023/12/27 11:38:20;;;;;;;12.30;4.30;;;5.30;99.90;;;;;;4949676;29;20129;-84
2023/12/27 11:40:50;;;;;;;13.80;4.50;;;6.30;99.90;;;;;;4952002;29;20039;-83
2023/12/27 11:43:25;;;;;;;15.75;4.60;;;5.30;99.90;;;;;;4968287;29;20513;-83
2023/12/27 11:46:02;;;;;;;16.33;4.72;;;5.40;99.90;;;;;;4952991;29;20044;-83
2023/12/27 11:48:35;;;;;;;11.75;4.40;;;5.70;99.90;;;;;;4947391;29;20040;-83
2023/12/27 11:51:35;;;;;;;19.95;5.13;;;5.80;99.90;;;;;;4939418;29;20040;-83
2023/12/27 11:54:04;;;;;;;13.27;5.15;;;5.40;99.90;;;;;;4943705;29;20035;-83
2023/12/27 11:56:32;;;;;;;14.38;4.95;;;5.30;99.90;;;;;;4952026;29;20408;-83
2023/12/27 11:59:00;;;;;;;12.13;4.60;;;5.40;99.90;;;;;;4949599;29;20044;-83
2023/12/27 12:01:27;;;;;;;15.25;5.20;;;6.40;99.90;;;;;;4956298;29;20083;-83
2023/12/27 12:04:25;;;;;;;14.10;4.70;;;5.30;99.90;;;;;;4951017;29;20047;-82
2023/12/27 12:06:54;;;;;;;16.33;5.32;;;5.30;99.90;;;;;;4964869;29;20048;-83
2023/12/27 12:09:44;;;;;;;17.95;5.28;;;5.30;99.90;;;;;;4967735;29;20060;-83
2023/12/27 12:12:22;;;;;;;17.30;5.40;;;6.20;99.90;;;;;;4968294;29;20489;-83
2023/12/27 12:14:53;;;;;;;13.25;5.35;;;5.30;99.90;;;;;;4942203;29;20047;-83
2023/12/27 12:17:20;;;;;;;15.65;5.50;;;5.30;99.90;;;;;;4942149;29;20184;-83
2023/12/27 12:19:49;;;;;;;13.05;5.88;;;5.90;99.90;;;;;;4937412;29;20051;-83
2023/12/27 12:22:17;;;;;;;16.17;6.10;;;5.30;99.90;;;;;;4967056;29;20049;-83
2023/12/27 12:24:46;;;;;;;15.43;5.10;;;5.20;99.90;;;;;;4943453;29;20413;-83
2023/12/27 12:27:14;;;;;;;15.80;5.60;;;5.50;99.90;;;;;;4949942;29;20071;-83
2023/12/27 12:29:41;;;;;;;13.27;5.57;;;5.90;99.90;;;;;;4954381;29;20075;-83
2023/12/27 12:32:08;;;;;;;18.02;6.35;;;5.20;99.90;;;;;;4964086;29;20504;-83
2023/12/27 12:34:37;;;;;;;19.67;6.00;;;5.20;99.90;;;;;;4967429;29;20044;-83
2023/12/27 12:37:04;;;;;;;17.02;5.47;;;5.20;99.90;;;;;;4938524;29;20421;-82
2023/12/27 12:39:30;;;;;;;16.00;6.20;;;5.20;99.90;;;;;;4950449;29;20036;-82
2023/12/27 12:41:58;;;;;;;14.63;5.63;;;5.20;99.90;;;;;;4948217;29;20051;-83
2023/12/27 12:44:24;;;;;;;20.40;6.30;;;5.30;99.90;;;;;;4952086;29;20046;-82
2023/12/27 12:46:51;;;;;;;16.13;5.78;;;5.90;99.90;;;;;;4962903;29;20401;-82
2023/12/27 12:49:18;;;;;;;16.83;5.53;;;5.80;99.90;;;;;;4961350;29;20107;-83
2023/12/27 12:51:45;;;;;;;18.05;6.25;;;5.20;99.90;;;;;;4966045;29;20405;-83